createdAt,value
2022-08-26T03:47:40.552Z,17.30
2022-08-26T03:50:10.067Z,17.30
2022-08-26T03:52:39.671Z,17.30
2022-08-26T03:55:10.585Z,17.20
2022-08-26T03:57:37.339Z,17.20
2022-08-26T04:00:12.209Z,17.10
2022-08-26T04:02:38.997Z,17.10
2022-08-26T04:05:06.210Z,17.10
2022-08-26T04:07:32.927Z,17.10
2022-08-26T04:09:59.973Z,17.10
2022-08-26T04:12:26.926Z,17.10
2022-08-26T04:14:53.876Z,17.00
2022-08-26T04:17:21.086Z,17.00
2022-08-26T04:19:54.632Z,17.00
2022-08-26T04:22:24.989Z,17.00
2022-08-26T04:24:52.366Z,17.00
2022-08-26T04:27:19.274Z,17.00
2022-08-26T04:29:46.586Z,16.90
2022-08-26T04:32:14.730Z,16.90
2022-08-26T04:34:43.268Z,16.90
2022-08-26T04:37:13.128Z,16.90
2022-08-26T04:39:40.440Z,16.90
2022-08-26T04:42:07.247Z,16.90
2022-08-26T04:44:35.921Z,16.90
2022-08-26T04:47:03.036Z,16.80
2022-08-26T04:49:35.101Z,16.80
2022-08-26T04:52:03.397Z,16.80
2022-08-26T04:54:31.631Z,16.80
2022-08-26T04:56:59.269Z,16.80
2022-08-26T04:59:26.237Z,16.90
2022-08-26T05:01:57.317Z,17.00
2022-08-26T05:04:24.134Z,17.00
2022-08-26T05:06:53.428Z,17.00
2022-08-26T05:09:22.698Z,17.00
2022-08-26T05:11:52.021Z,17.00
2022-08-26T05:14:20.791Z,17.00
2022-08-26T05:16:47.748Z,17.00
2022-08-26T05:19:18.998Z,17.00
2022-08-26T05:21:47.684Z,17.00
2022-08-26T05:24:14.575Z,17.00
2022-08-26T05:26:41.590Z,17.10
2022-08-26T05:29:11.606Z,17.10
2022-08-26T05:31:38.464Z,17.10
2022-08-26T05:34:05.869Z,17.10
2022-08-26T05:36:34.387Z,17.20
2022-08-26T05:39:03.725Z,17.30
2022-08-26T05:41:34.391Z,17.30
2022-08-26T05:44:06.419Z,17.40
2022-08-26T05:46:33.692Z,17.50
2022-08-26T05:49:01.332Z,17.50
2022-08-26T05:51:30.866Z,17.60
2022-08-26T05:53:58.679Z,17.70
2022-08-26T05:56:27.435Z,17.80
2022-08-26T05:58:56.197Z,18.00
2022-08-26T06:01:27.134Z,18.00
2022-08-26T06:04:01.299Z,18.20
2022-08-26T06:06:33.974Z,18.30
2022-08-26T06:09:03.465Z,18.40
2022-08-26T06:11:32.437Z,18.50
2022-08-26T06:14:03.831Z,18.70
2022-08-26T06:16:34.670Z,18.80
2022-08-26T06:19:03.416Z,18.90
2022-08-26T06:21:39.980Z,18.90
2022-08-26T06:24:27.903Z,19.00
2022-08-26T06:26:58.053Z,19.10
2022-08-26T06:29:26.078Z,19.20
2022-08-26T06:31:54.666Z,19.30
2022-08-26T06:34:26.614Z,19.40
2022-08-26T06:36:59.537Z,19.40
2022-08-26T06:39:26.275Z,19.60
2022-08-26T06:41:52.995Z,19.70
2022-08-26T06:44:21.002Z,19.70
2022-08-26T06:46:50.256Z,19.80
2022-08-26T06:49:17.716Z,19.90
2022-08-26T06:51:44.541Z,20.00
2022-08-26T06:54:11.430Z,20.10
2022-08-26T06:56:43.230Z,20.20
2022-08-26T06:59:11.637Z,20.30
2022-08-26T07:01:45.384Z,20.30
2022-08-26T07:04:15.657Z,20.40
2022-08-26T07:06:48.918Z,20.50
2022-08-26T07:09:16.762Z,20.60
2022-08-26T07:11:44.632Z,20.70
2022-08-26T07:14:12.130Z,20.80
2022-08-26T07:16:39.866Z,20.90
2022-08-26T07:19:11.253Z,21.00
2022-08-26T07:21:40.129Z,21.10
2022-08-26T07:24:07.577Z,21.40
2022-08-26T07:26:34.426Z,21.50
2022-08-26T07:29:02.038Z,21.70
2022-08-26T07:31:39.169Z,21.80
2022-08-26T07:34:07.646Z,21.70
2022-08-26T07:36:34.945Z,21.80
2022-08-26T07:39:01.701Z,22.00
2022-08-26T07:43:56.801Z,22.30
2022-08-26T07:46:27.071Z,22.40
2022-08-26T07:48:54.461Z,22.70
2022-08-26T07:51:22.809Z,22.90
2022-08-26T07:53:52.710Z,23.10
2022-08-26T07:56:23.054Z,23.40
2022-08-26T07:58:51.773Z,23.60
2022-08-26T08:01:20.357Z,23.90
2022-08-26T08:03:48.047Z,24.30
2022-08-26T08:06:18.888Z,24.60
2022-08-26T08:08:46.305Z,24.90
2022-08-26T08:11:14.573Z,25.10
2022-08-26T08:13:41.676Z,25.20
2022-08-26T08:16:12.743Z,25.30
2022-08-26T08:18:40.431Z,25.30
2022-08-26T08:21:23.631Z,25.40
2022-08-26T08:23:55.491Z,25.50
2022-08-26T08:26:24.214Z,26.00
2022-08-26T08:28:54.202Z,26.40
2022-08-26T08:31:55.884Z,27.00
2022-08-26T08:34:15.105Z,27.80
2022-08-26T08:36:42.020Z,28.80
2022-08-26T08:39:09.586Z,29.70
2022-08-26T08:41:44.930Z,30.10
2022-08-26T08:44:21.002Z,30.80
2022-08-26T08:47:00.804Z,31.70
2022-08-26T08:49:29.311Z,33.10
2022-08-26T08:52:14.251Z,33.50
2022-08-26T08:54:41.533Z,34.60
2022-08-26T08:57:12.621Z,35.20
2022-08-26T08:59:53.283Z,36.00
2022-08-26T09:02:31.816Z,36.20
2022-08-26T09:05:29.949Z,36.30
2022-08-26T09:08:04.770Z,37.10
2022-08-26T09:10:36.297Z,37.70
2022-08-26T09:13:09.253Z,38.30
2022-08-26T09:15:58.405Z,38.70
2022-08-26T09:18:39.304Z,38.70
2022-08-26T09:21:09.420Z,38.70
2022-08-26T09:23:39.209Z,38.80
2022-08-26T09:26:18.705Z,39.30
2022-08-26T09:28:53.730Z,39.20
2022-08-26T09:31:25.901Z,38.80
2022-08-26T09:34:17.404Z,38.70
2022-08-26T09:36:50.152Z,39.00
2022-08-26T09:39:33.072Z,38.70
2022-08-26T09:42:27.989Z,38.00
2022-08-26T09:44:59.365Z,37.70
2022-08-26T09:47:34.024Z,38.20
2022-08-26T09:50:09.602Z,38.90
2022-08-26T09:52:36.894Z,39.40
2022-08-26T09:55:09.733Z,40.00
2022-08-26T09:57:46.433Z,40.00
2022-08-26T10:00:27.603Z,40.00
2022-08-26T10:02:57.893Z,39.70
2022-08-26T10:05:53.146Z,39.30
2022-08-26T10:08:24.183Z,39.70
2022-08-26T10:10:53.334Z,39.80
2022-08-26T10:13:42.224Z,40.90
2022-08-26T10:16:21.595Z,41.90
2022-08-26T10:19:03.711Z,42.30
2022-08-26T10:21:38.349Z,42.60
2022-08-26T10:24:09.044Z,42.40
2022-08-26T10:26:56.065Z,41.80
2022-08-26T10:29:50.449Z,40.90
2022-08-26T10:32:48.098Z,40.30
2022-08-26T10:35:16.945Z,40.40
2022-08-26T10:37:54.116Z,41.20
2022-08-26T10:40:27.405Z,40.40
2022-08-26T10:43:09.965Z,40.00
2022-08-26T10:45:44.588Z,39.10
2022-08-26T10:48:21.226Z,39.60
2022-08-26T10:50:49.174Z,39.70
2022-08-26T10:53:25.290Z,39.20
2022-08-26T10:56:26.597Z,39.20
2022-08-26T10:59:22.134Z,39.30
2022-08-26T11:02:07.078Z,39.00
2022-08-26T11:04:48.305Z,39.10
2022-08-26T11:07:46.215Z,39.10
2022-08-26T11:10:19.152Z,38.40
2022-08-26T11:12:49.480Z,37.80
2022-08-26T11:15:26.069Z,37.90
2022-08-26T11:17:53.133Z,38.80
2022-08-26T11:20:23.740Z,39.50
2022-08-26T11:22:55.833Z,38.90
2022-08-26T11:25:30.202Z,38.10
2022-08-26T11:28:01.043Z,37.90
2022-08-26T11:30:40.802Z,38.40
2022-08-26T11:33:09.132Z,38.40
2022-08-26T11:35:37.469Z,36.20
2022-08-26T11:38:18.774Z,35.80
2022-08-26T11:40:54.707Z,35.90
2022-08-26T11:43:26.022Z,35.80
2022-08-26T11:46:11.422Z,35.10
2022-08-26T11:48:40.919Z,34.90
2022-08-26T11:51:18.525Z,35.00
2022-08-26T11:53:47.242Z,35.00
2022-08-26T11:56:33.108Z,34.80
2022-08-26T11:59:03.085Z,34.80
2022-08-26T12:01:33.021Z,34.90
2022-08-26T12:04:01.086Z,34.90
2022-08-26T12:06:45.839Z,35.20
2022-08-26T12:09:21.399Z,35.50
2022-08-26T12:11:48.249Z,34.60
2022-08-26T12:14:20.665Z,32.50
2022-08-26T12:16:48.448Z,31.60
2022-08-26T12:19:25.236Z,31.60
2022-08-26T12:22:06.570Z,31.00
2022-08-26T12:24:33.430Z,30.70
2022-08-26T12:27:16.371Z,30.80
2022-08-26T12:29:43.145Z,30.60
2022-08-26T12:32:18.275Z,31.10
2022-08-26T12:34:48.956Z,31.30
2022-08-26T12:37:16.149Z,31.80
2022-08-26T12:39:45.734Z,31.80
2022-08-26T12:42:12.396Z,31.70
2022-08-26T12:44:53.991Z,32.20
2022-08-26T12:47:44.370Z,32.60
2022-08-26T12:50:18.216Z,33.10
2022-08-26T12:52:57.301Z,33.20
2022-08-26T12:55:35.511Z,32.80
2022-08-26T12:58:22.959Z,32.80
2022-08-26T13:00:51.075Z,33.00
2022-08-26T13:03:45.243Z,33.00
2022-08-26T13:06:22.749Z,33.30
2022-08-26T13:09:07.526Z,33.20
2022-08-26T13:11:54.454Z,32.90
2022-08-26T13:14:24.365Z,33.00
2022-08-26T13:16:52.416Z,33.00
2022-08-26T13:19:22.565Z,33.00
2022-08-26T13:21:55.498Z,33.20
2022-08-26T13:24:25.026Z,33.50
2022-08-26T13:26:51.842Z,34.00
2022-08-26T13:29:19.427Z,34.30
2022-08-26T13:31:46.746Z,34.70
2022-08-26T13:34:20.813Z,34.90
2022-08-26T13:36:49.514Z,35.10
2022-08-26T13:39:17.450Z,35.60
2022-08-26T13:41:44.453Z,36.10
2022-08-26T13:44:11.248Z,36.30
2022-08-26T13:46:38.643Z,36.50
2022-08-26T13:49:06.304Z,36.70
2022-08-26T13:51:33.397Z,36.80
2022-08-26T13:54:00.676Z,36.80
2022-08-26T13:56:29.569Z,36.70
2022-08-26T13:58:57.754Z,36.80
2022-08-26T14:01:25.710Z,36.70
2022-08-26T14:03:52.773Z,36.70
2022-08-26T14:06:20.441Z,36.70
2022-08-26T14:08:48.565Z,36.50
2022-08-26T14:11:15.386Z,36.00
2022-08-26T14:13:42.173Z,36.10
2022-08-26T14:16:13.403Z,36.10
2022-08-26T14:18:44.404Z,36.20
2022-08-26T14:21:14.405Z,36.10
2022-08-26T14:23:41.391Z,35.90
2022-08-26T14:26:10.850Z,35.70
2022-08-26T14:28:41.745Z,35.40
2022-08-26T14:31:08.782Z,35.20
2022-08-26T14:33:38.182Z,34.30
2022-08-26T14:36:24.928Z,33.90
2022-08-26T14:38:52.350Z,33.40
2022-08-26T14:41:19.866Z,32.80
2022-08-26T14:43:57.868Z,32.40
2022-08-26T14:46:28.853Z,32.10
2022-08-26T14:49:01.658Z,32.10
2022-08-26T14:51:29.269Z,31.90
2022-08-26T14:54:14.186Z,31.80
2022-08-26T14:57:08.366Z,31.70
2022-08-26T14:59:50.263Z,31.50
2022-08-26T15:02:32.516Z,31.10
2022-08-26T15:05:02.050Z,30.90
2022-08-26T15:07:28.771Z,30.70
2022-08-26T15:09:55.546Z,30.70
2022-08-26T15:12:22.639Z,30.60
2022-08-26T15:14:49.427Z,30.40
2022-08-26T15:17:16.197Z,30.40
2022-08-26T15:19:42.921Z,30.30
2022-08-26T15:22:09.670Z,30.50
2022-08-26T15:24:36.533Z,30.70
2022-08-26T15:27:03.364Z,31.00
2022-08-26T15:29:30.066Z,31.30
2022-08-26T15:31:58.449Z,31.60
2022-08-26T15:34:25.353Z,31.70
2022-08-26T15:36:52.077Z,31.70
2022-08-26T15:39:19.813Z,31.50
2022-08-26T15:41:46.959Z,31.40
2022-08-26T15:44:14.275Z,31.30
2022-08-26T15:46:41.971Z,31.10
2022-08-26T15:49:08.875Z,30.90
2022-08-26T15:51:45.822Z,30.60
2022-08-26T15:54:13.833Z,30.40
2022-08-26T15:56:40.641Z,30.30
2022-08-26T15:59:08.228Z,30.10
2022-08-26T16:01:35.578Z,30.00
2022-08-26T16:04:03.034Z,29.90
2022-08-26T16:06:32.197Z,29.70
2022-08-26T16:08:59.682Z,29.70
2022-08-26T16:11:26.930Z,29.60
2022-08-26T16:13:54.385Z,29.50
2022-08-26T16:16:21.599Z,29.50
2022-08-26T16:18:48.523Z,29.40
2022-08-26T16:21:18.090Z,29.40
2022-08-26T16:23:45.522Z,29.30
2022-08-26T16:26:21.205Z,29.20
2022-08-26T16:28:48.523Z,29.10
2022-08-26T16:31:15.904Z,29.00
2022-08-26T16:33:42.906Z,28.90
2022-08-26T16:36:11.172Z,28.90
2022-08-26T16:38:38.967Z,28.70
2022-08-26T16:41:07.383Z,28.50
2022-08-26T16:43:34.659Z,28.30
2022-08-26T16:46:01.485Z,28.10
2022-08-26T16:48:28.321Z,28.00
2022-08-26T16:50:55.521Z,27.80
2022-08-26T16:53:23.210Z,27.80
2022-08-26T16:55:50.810Z,27.60
2022-08-26T16:58:21.970Z,27.50
2022-08-26T17:00:49.611Z,27.20
2022-08-26T17:03:16.852Z,26.80
2022-08-26T17:05:43.616Z,26.40
2022-08-26T17:08:10.689Z,26.20
2022-08-26T17:10:37.727Z,26.00
2022-08-26T17:13:04.686Z,25.70
2022-08-26T17:15:31.479Z,25.60
2022-08-26T17:17:58.369Z,25.50
2022-08-26T17:20:25.488Z,25.40
2022-08-26T17:22:54.106Z,25.50
2022-08-26T17:25:28.053Z,25.60
2022-08-26T17:30:27.020Z,25.40
2022-08-26T17:32:54.875Z,25.40
2022-08-26T17:35:22.794Z,25.50
2022-08-26T17:37:49.581Z,25.50
2022-08-26T17:40:19.815Z,25.50
2022-08-26T17:42:48.037Z,25.50
2022-08-26T17:45:15.158Z,25.50
2022-08-26T17:47:42.319Z,25.50
2022-08-26T17:50:12.816Z,25.40
2022-08-26T17:52:40.533Z,25.50
2022-08-26T17:55:09.144Z,25.40
2022-08-26T17:57:40.569Z,25.20
2022-08-26T18:00:12.977Z,25.10
2022-08-26T18:02:40.332Z,25.10
2022-08-26T18:05:09.396Z,25.00
2022-08-26T18:07:43.893Z,25.00
2022-08-26T18:10:13.521Z,25.00
2022-08-26T18:12:41.407Z,24.90
2022-08-26T18:15:09.335Z,24.90
2022-08-26T18:17:36.272Z,24.90
2022-08-26T18:20:03.138Z,24.80
2022-08-26T18:22:30.294Z,24.80
2022-08-26T18:24:58.859Z,24.80
2022-08-26T18:27:26.630Z,24.70
2022-08-26T18:29:54.545Z,24.70
2022-08-26T18:32:21.546Z,24.60
2022-08-26T18:34:48.422Z,24.50
2022-08-26T18:37:15.566Z,24.40
2022-08-26T18:39:42.293Z,24.40
2022-08-26T18:42:09.204Z,24.20
2022-08-26T18:44:36.056Z,24.10
2022-08-26T18:47:02.891Z,24.10
2022-08-26T18:49:29.619Z,24.20
2022-08-26T18:51:56.364Z,24.20
2022-08-26T18:54:23.097Z,24.20
2022-08-26T18:56:49.937Z,24.20
2022-08-26T18:59:17.377Z,24.00
2022-08-26T19:01:45.231Z,24.00
2022-08-26T19:04:12.814Z,24.10
2022-08-26T19:06:42.193Z,24.10
2022-08-26T19:09:10.844Z,24.10
2022-08-26T19:11:42.310Z,23.90
2022-08-26T19:14:13.549Z,23.80
2022-08-26T19:16:42.607Z,23.80
2022-08-26T19:19:10.722Z,23.60
2022-08-26T19:21:37.966Z,23.50
2022-08-26T19:24:08.590Z,23.60
2022-08-26T19:26:36.183Z,23.60
2022-08-26T19:29:03.114Z,23.50
2022-08-26T19:31:29.961Z,23.40
2022-08-26T19:33:57.959Z,23.50
2022-08-26T19:36:26.077Z,23.30
2022-08-26T19:38:54.077Z,23.40
2022-08-26T19:41:36.659Z,23.40
2022-08-26T19:44:10.584Z,23.30
2022-08-26T19:49:05.608Z,23.30
2022-08-26T19:51:34.622Z,23.30
2022-08-26T19:54:01.970Z,23.30
2022-08-26T19:56:29.032Z,23.20
2022-08-26T19:58:56.350Z,23.20
2022-08-26T20:01:23.911Z,23.10
2022-08-26T20:03:50.778Z,23.00
2022-08-26T20:06:18.244Z,23.00
2022-08-26T20:08:45.179Z,23.00
2022-08-26T20:11:15.126Z,23.00
2022-08-26T20:13:43.086Z,23.10
2022-08-26T20:16:11.906Z,23.10
2022-08-26T20:18:58.910Z,23.00
2022-08-26T20:21:26.241Z,22.90
2022-08-26T20:23:55.565Z,23.00
2022-08-26T20:26:22.527Z,23.20
2022-08-26T20:28:50.946Z,23.20
2022-08-26T20:31:19.131Z,23.00
2022-08-26T20:33:46.761Z,22.90
2022-08-26T20:36:13.982Z,22.60
2022-08-26T20:38:41.173Z,21.90
2022-08-26T20:41:07.897Z,21.40
2022-08-26T20:43:34.678Z,20.90
2022-08-26T20:46:01.654Z,20.60
2022-08-26T20:48:28.437Z,20.30
2022-08-26T20:50:59.610Z,20.00
2022-08-26T20:53:28.611Z,19.80
2022-08-26T20:56:00.144Z,19.60
2022-08-26T20:58:26.966Z,19.40
2022-08-26T21:00:54.267Z,19.30
2022-08-26T21:03:21.081Z,19.20
2022-08-26T21:05:47.778Z,19.20
2022-08-26T21:08:14.478Z,19.20
2022-08-26T21:10:41.166Z,19.20
2022-08-26T21:13:08.380Z,19.20
2022-08-26T21:15:35.341Z,19.20
2022-08-26T21:18:03.425Z,19.30
2022-08-26T21:20:31.174Z,19.30
2022-08-26T21:22:57.955Z,19.30
2022-08-26T21:25:24.942Z,19.30
2022-08-26T21:27:51.689Z,19.20
2022-08-26T21:30:18.458Z,19.00
2022-08-26T21:32:45.226Z,18.90
2022-08-26T21:35:11.930Z,18.80
2022-08-26T21:37:38.777Z,18.70
2022-08-26T21:40:07.021Z,18.70
2022-08-26T21:42:34.794Z,18.70
2022-08-26T21:45:02.510Z,18.70
2022-08-26T21:47:32.549Z,18.70
2022-08-26T21:49:59.948Z,18.70
2022-08-26T21:52:26.777Z,18.70
2022-08-26T21:54:58.526Z,18.60
2022-08-26T21:57:28.003Z,18.60
2022-08-26T21:59:55.354Z,18.50
2022-08-26T22:02:23.013Z,18.50
2022-08-26T22:04:49.882Z,18.50
2022-08-26T22:07:19.062Z,18.50
2022-08-26T22:09:46.112Z,18.60
2022-08-26T22:12:13.419Z,18.60
2022-08-26T22:14:40.133Z,18.60
2022-08-26T22:17:07.035Z,18.50
2022-08-26T22:19:34.531Z,18.40
2022-08-26T22:22:13.081Z,18.40
2022-08-26T22:24:39.992Z,18.30
2022-08-26T22:27:07.074Z,18.30
2022-08-26T22:29:34.318Z,18.30
2022-08-26T22:32:01.681Z,18.20
2022-08-26T22:34:28.656Z,18.20
2022-08-26T22:36:55.964Z,18.10
2022-08-26T22:39:25.031Z,18.00
2022-08-26T22:41:53.727Z,18.00
2022-08-26T22:44:22.153Z,17.90
2022-08-26T22:46:50.864Z,17.90
2022-08-26T22:49:17.862Z,17.70
2022-08-26T22:51:45.448Z,17.60
2022-08-26T22:54:13.834Z,17.60
2022-08-26T22:56:41.383Z,17.50
2022-08-26T22:59:08.944Z,17.50
2022-08-26T23:01:39.153Z,17.50
2022-08-26T23:04:07.103Z,17.60
2022-08-26T23:06:38.541Z,17.70
2022-08-26T23:09:07.124Z,17.80
2022-08-26T23:11:34.393Z,17.90
2022-08-26T23:14:02.851Z,18.00
2022-08-26T23:16:39.559Z,18.10
2022-08-26T23:19:08.320Z,18.10
2022-08-26T23:21:35.308Z,18.10
2022-08-26T23:24:02.473Z,18.10
2022-08-26T23:26:29.235Z,18.20
2022-08-26T23:28:56.127Z,18.30
